sensor_id;sensor_type;location;lat;lon;timestamp;P1;durP1;ratioP1;P2;durP2;ratioP2
77091;SDS011;66032;48.252;11.638;2023-02-13T00:00:51;27.17;;;10.02;;
77091;SDS011;66032;48.252;11.638;2023-02-13T00:03:18;32.13;;;11.90;;
77091;SDS011;66032;48.252;11.638;2023-02-13T00:05:45;24.23;;;10.00;;
77091;SDS011;66032;48.252;11.638;2023-02-13T00:08:13;51.95;;;11.35;;
77091;SDS011;66032;48.252;11.638;2023-02-13T00:10:40;51.40;;;10.38;;
77091;SDS011;66032;48.252;11.638;2023-02-13T00:13:07;45.38;;;11.10;;
77091;SDS011;66032;48.252;11.638;2023-02-13T00:15:34;34.25;;;9.30;;
77091;SDS011;66032;48.252;11.638;2023-02-13T00:18:01;43.75;;;9.50;;
77091;SDS011;66032;48.252;11.638;2023-02-13T00:20:29;32.85;;;10.70;;
77091;SDS011;66032;48.252;11.638;2023-02-13T00:22:59;56.33;;;12.02;;
77091;SDS011;66032;48.252;11.638;2023-02-13T00:25:26;62.90;;;11.23;;
77091;SDS011;66032;48.252;11.638;2023-02-13T00:27:54;24.00;;;9.98;;
77091;SDS011;66032;48.252;11.638;2023-02-13T00:30:21;82.10;;;13.40;;
77091;SDS011;66032;48.252;11.638;2023-02-13T00:32:50;39.25;;;11.70;;
77091;SDS011;66032;48.252;11.638;2023-02-13T00:35:17;116.75;;;14.75;;
77091;SDS011;66032;48.252;11.638;2023-02-13T00:37:44;37.85;;;10.77;;
77091;SDS011;66032;48.252;11.638;2023-02-13T00:40:12;43.72;;;11.60;;
77091;SDS011;66032;48.252;11.638;2023-02-13T00:42:39;128.93;;;14.05;;
77091;SDS011;66032;48.252;11.638;2023-02-13T00:45:06;62.90;;;11.43;;
77091;SDS011;66032;48.252;11.638;2023-02-13T00:47:34;52.50;;;10.45;;
77091;SDS011;66032;48.252;11.638;2023-02-13T00:50:01;45.53;;;11.60;;
77091;SDS011;66032;48.252;11.638;2023-02-13T00:52:28;44.65;;;12.82;;
77091;SDS011;66032;48.252;11.638;2023-02-13T00:54:55;38.20;;;10.60;;
77091;SDS011;66032;48.252;11.638;2023-02-13T00:57:22;58.55;;;11.38;;
77091;SDS011;66032;48.252;11.638;2023-02-13T00:59:50;71.63;;;12.05;;
77091;SDS011;66032;48.252;11.638;2023-02-13T01:02:17;124.20;;;13.70;;
77091;SDS011;66032;48.252;11.638;2023-02-13T01:04:44;32.47;;;10.63;;
77091;SDS011;66032;48.252;11.638;2023-02-13T01:07:11;29.15;;;10.05;;
77091;SDS011;66032;48.252;11.638;2023-02-13T01:09:42;28.80;;;9.73;;
77091;SDS011;66032;48.252;11.638;2023-02-13T01:12:10;35.55;;;9.65;;
77091;SDS011;66032;48.252;11.638;2023-02-13T01:14:37;23.13;;;9.13;;
77091;SDS011;66032;48.252;11.638;2023-02-13T01:17:04;26.45;;;10.25;;
77091;SDS011;66032;48.252;11.638;2023-02-13T01:19:31;80.50;;;12.05;;
77091;SDS011;66032;48.252;11.638;2023-02-13T01:21:59;23.45;;;10.00;;
77091;SDS011;66032;48.252;11.638;2023-02-13T01:24:26;64.68;;;12.40;;
77091;SDS011;66032;48.252;11.638;2023-02-13T01:26:58;81.65;;;12.70;;
77091;SDS011;66032;48.252;11.638;2023-02-13T01:29:28;45.83;;;12.80;;
77091;SDS011;66032;48.252;11.638;2023-02-13T01:31:55;27.17;;;11.43;;
77091;SDS011;66032;48.252;11.638;2023-02-13T01:34:27;44.30;;;12.17;;
77091;SDS011;66032;48.252;11.638;2023-02-13T01:36:54;47.85;;;10.85;;
77091;SDS011;66032;48.252;11.638;2023-02-13T01:39:23;44.05;;;9.35;;
77091;SDS011;66032;48.252;11.638;2023-02-13T01:41:50;140.32;;;15.32;;
77091;SDS011;66032;48.252;11.638;2023-02-13T01:50:32;31.17;;;10.60;;
77091;SDS011;66032;48.252;11.638;2023-02-13T01:53:15;54.95;;;11.43;;
77091;SDS011;66032;48.252;11.638;2023-02-13T01:55:57;24.65;;;9.35;;
77091;SDS011;66032;48.252;11.638;2023-02-13T01:58:47;70.32;;;11.88;;
77091;SDS011;66032;48.252;11.638;2023-02-13T02:01:16;25.20;;;9.35;;
77091;SDS011;66032;48.252;11.638;2023-02-13T02:03:49;24.60;;;9.07;;
77091;SDS011;66032;48.252;11.638;2023-02-13T02:06:29;81.72;;;12.90;;
77091;SDS011;66032;48.252;11.638;2023-02-13T02:09:02;23.50;;;9.60;;
77091;SDS011;66032;48.252;11.638;2023-02-13T02:14:10;25.05;;;10.10;;
77091;SDS011;66032;48.252;11.638;2023-02-13T02:16:40;44.88;;;10.05;;
77091;SDS011;66032;48.252;11.638;2023-02-13T02:19:12;111.18;;;13.68;;
77091;SDS011;66032;48.252;11.638;2023-02-13T02:22:51;44.50;;;11.38;;
77091;SDS011;66032;48.252;11.638;2023-02-13T02:33:37;83.15;;;12.02;;
77091;SDS011;66032;48.252;11.638;2023-02-13T02:39:15;52.00;;;10.23;;
77091;SDS011;66032;48.252;11.638;2023-02-13T02:44:38;60.95;;;11.23;;
77091;SDS011;66032;48.252;11.638;2023-02-13T02:47:24;35.30;;;9.43;;
77091;SDS011;66032;48.252;11.638;2023-02-13T02:50:21;60.67;;;9.82;;
77091;SDS011;66032;48.252;11.638;2023-02-13T02:53:43;58.60;;;10.35;;
77091;SDS011;66032;48.252;11.638;2023-02-13T02:56:21;41.97;;;10.10;;
77091;SDS011;66032;48.252;11.638;2023-02-13T03:01:59;88.95;;;10.48;;
77091;SDS011;66032;48.252;11.638;2023-02-13T03:04:52;91.53;;;11.40;;
77091;SDS011;66032;48.252;11.638;2023-02-13T03:07:40;96.38;;;11.15;;
77091;SDS011;66032;48.252;11.638;2023-02-13T03:10:09;115.88;;;12.25;;
77091;SDS011;66032;48.252;11.638;2023-02-13T03:13:02;43.42;;;9.93;;
77091;SDS011;66032;48.252;11.638;2023-02-13T03:15:48;118.70;;;13.93;;
77091;SDS011;66032;48.252;11.638;2023-02-13T03:18:41;55.35;;;10.50;;
77091;SDS011;66032;48.252;11.638;2023-02-13T03:21:43;139.13;;;14.52;;
77091;SDS011;66032;48.252;11.638;2023-02-13T03:30:26;23.77;;;9.18;;
77091;SDS011;66032;48.252;11.638;2023-02-13T03:36:01;69.97;;;10.27;;
77091;SDS011;66032;48.252;11.638;2023-02-13T03:41:37;35.90;;;9.57;;
77091;SDS011;66032;48.252;11.638;2023-02-13T03:46:46;42.30;;;10.32;;
77091;SDS011;66032;48.252;11.638;2023-02-13T03:49:20;52.38;;;10.70;;
77091;SDS011;66032;48.252;11.638;2023-02-13T03:52:13;76.38;;;11.32;;
77091;SDS011;66032;48.252;11.638;2023-02-13T03:54:49;49.35;;;11.02;;
77091;SDS011;66032;48.252;11.638;2023-02-13T03:57:41;32.15;;;9.27;;
77091;SDS011;66032;48.252;11.638;2023-02-13T04:00:32;88.95;;;11.80;;
77091;SDS011;66032;48.252;11.638;2023-02-13T04:08:07;60.72;;;10.30;;
77091;SDS011;66032;48.252;11.638;2023-02-13T04:10:34;66.47;;;9.95;;
77091;SDS011;66032;48.252;11.638;2023-02-13T04:13:17;23.33;;;8.82;;
77091;SDS011;66032;48.252;11.638;2023-02-13T04:16:09;24.02;;;8.85;;
77091;SDS011;66032;48.252;11.638;2023-02-13T04:18:42;90.88;;;11.85;;
77091;SDS011;66032;48.252;11.638;2023-02-13T04:21:11;82.18;;;11.27;;
77091;SDS011;66032;48.252;11.638;2023-02-13T04:23:38;30.83;;;10.00;;
77091;SDS011;66032;48.252;11.638;2023-02-13T04:26:06;101.85;;;12.18;;
77091;SDS011;66032;48.252;11.638;2023-02-13T04:28:39;49.47;;;11.23;;
77091;SDS011;66032;48.252;11.638;2023-02-13T04:31:07;97.68;;;13.70;;
77091;SDS011;66032;48.252;11.638;2023-02-13T04:33:34;30.85;;;10.43;;
77091;SDS011;66032;48.252;11.638;2023-02-13T04:36:01;34.67;;;10.60;;
77091;SDS011;66032;48.252;11.638;2023-02-13T04:38:29;28.95;;;9.13;;
77091;SDS011;66032;48.252;11.638;2023-02-13T04:40:56;38.75;;;10.48;;
77091;SDS011;66032;48.252;11.638;2023-02-13T04:43:23;26.67;;;10.45;;
77091;SDS011;66032;48.252;11.638;2023-02-13T04:45:51;21.08;;;8.45;;
77091;SDS011;66032;48.252;11.638;2023-02-13T04:48:18;25.50;;;10.40;;
77091;SDS011;66032;48.252;11.638;2023-02-13T04:50:45;43.78;;;11.20;;
77091;SDS011;66032;48.252;11.638;2023-02-13T04:53:13;17.27;;;8.55;;
77091;SDS011;66032;48.252;11.638;2023-02-13T04:55:40;40.97;;;10.73;;
77091;SDS011;66032;48.252;11.638;2023-02-13T04:58:08;25.85;;;9.93;;
77091;SDS011;66032;48.252;11.638;2023-02-13T05:00:35;24.55;;;9.90;;
77091;SDS011;66032;48.252;11.638;2023-02-13T05:03:04;35.00;;;10.40;;
77091;SDS011;66032;48.252;11.638;2023-02-13T05:05:35;21.35;;;10.00;;
77091;SDS011;66032;48.252;11.638;2023-02-13T05:08:03;25.95;;;9.18;;
77091;SDS011;66032;48.252;11.638;2023-02-13T05:10:31;19.83;;;8.73;;
77091;SDS011;66032;48.252;11.638;2023-02-13T05:12:59;31.85;;;9.60;;
77091;SDS011;66032;48.252;11.638;2023-02-13T05:15:26;19.15;;;8.98;;
77091;SDS011;66032;48.252;11.638;2023-02-13T05:17:54;16.33;;;7.65;;
77091;SDS011;66032;48.252;11.638;2023-02-13T05:20:21;22.38;;;8.23;;
77091;SDS011;66032;48.252;11.638;2023-02-13T05:22:49;18.33;;;8.27;;
77091;SDS011;66032;48.252;11.638;2023-02-13T05:25:37;36.45;;;8.88;;
77091;SDS011;66032;48.252;11.638;2023-02-13T05:28:06;21.08;;;7.97;;
77091;SDS011;66032;48.252;11.638;2023-02-13T05:30:52;15.40;;;6.45;;
77091;SDS011;66032;48.252;11.638;2023-02-13T05:33:19;33.90;;;9.88;;
77091;SDS011;66032;48.252;11.638;2023-02-13T05:35:47;12.18;;;5.70;;
77091;SDS011;66032;48.252;11.638;2023-02-13T05:38:14;17.23;;;7.28;;
77091;SDS011;66032;48.252;11.638;2023-02-13T05:40:41;16.13;;;8.15;;
77091;SDS011;66032;48.252;11.638;2023-02-13T05:43:08;19.88;;;8.30;;
77091;SDS011;66032;48.252;11.638;2023-02-13T05:45:36;17.15;;;6.82;;
77091;SDS011;66032;48.252;11.638;2023-02-13T05:48:03;25.23;;;9.52;;
77091;SDS011;66032;48.252;11.638;2023-02-13T05:50:30;10.55;;;4.97;;
77091;SDS011;66032;48.252;11.638;2023-02-13T05:52:58;18.15;;;8.45;;
77091;SDS011;66032;48.252;11.638;2023-02-13T05:55:25;16.63;;;8.05;;
77091;SDS011;66032;48.252;11.638;2023-02-13T05:57:55;17.27;;;8.13;;
77091;SDS011;66032;48.252;11.638;2023-02-13T06:00:23;20.45;;;9.02;;
77091;SDS011;66032;48.252;11.638;2023-02-13T06:02:51;19.60;;;8.35;;
77091;SDS011;66032;48.252;11.638;2023-02-13T06:05:18;16.58;;;6.82;;
77091;SDS011;66032;48.252;11.638;2023-02-13T06:07:45;23.48;;;9.57;;
77091;SDS011;66032;48.252;11.638;2023-02-13T06:10:12;17.15;;;7.65;;
77091;SDS011;66032;48.252;11.638;2023-02-13T06:12:41;15.95;;;6.55;;
77091;SDS011;66032;48.252;11.638;2023-02-13T06:15:09;20.88;;;8.18;;
77091;SDS011;66032;48.252;11.638;2023-02-13T06:17:36;14.50;;;6.00;;
77091;SDS011;66032;48.252;11.638;2023-02-13T06:20:04;16.33;;;7.28;;
77091;SDS011;66032;48.252;11.638;2023-02-13T06:22:32;23.45;;;8.80;;
77091;SDS011;66032;48.252;11.638;2023-02-13T06:24:59;16.25;;;6.97;;
77091;SDS011;66032;48.252;11.638;2023-02-13T06:27:26;39.95;;;9.73;;
77091;SDS011;66032;48.252;11.638;2023-02-13T06:29:54;26.88;;;9.88;;
77091;SDS011;66032;48.252;11.638;2023-02-13T06:32:21;31.55;;;9.38;;
77091;SDS011;66032;48.252;11.638;2023-02-13T06:34:48;16.38;;;7.30;;
77091;SDS011;66032;48.252;11.638;2023-02-13T06:37:15;17.10;;;7.13;;
77091;SDS011;66032;48.252;11.638;2023-02-13T06:39:42;22.90;;;8.63;;
77091;SDS011;66032;48.252;11.638;2023-02-13T06:42:09;20.33;;;8.52;;
77091;SDS011;66032;48.252;11.638;2023-02-13T06:44:37;19.10;;;8.68;;
77091;SDS011;66032;48.252;11.638;2023-02-13T06:47:04;16.45;;;8.40;;
77091;SDS011;66032;48.252;11.638;2023-02-13T06:49:31;28.42;;;10.15;;
77091;SDS011;66032;48.252;11.638;2023-02-13T06:51:58;18.58;;;9.02;;
77091;SDS011;66032;48.252;11.638;2023-02-13T06:54:25;16.63;;;7.22;;
77091;SDS011;66032;48.252;11.638;2023-02-13T06:57:12;14.57;;;7.28;;
77091;SDS011;66032;48.252;11.638;2023-02-13T06:59:39;14.75;;;7.07;;
77091;SDS011;66032;48.252;11.638;2023-02-13T07:02:08;13.63;;;5.82;;
77091;SDS011;66032;48.252;11.638;2023-02-13T07:04:36;19.20;;;8.98;;
77091;SDS011;66032;48.252;11.638;2023-02-13T07:07:04;21.70;;;8.90;;
77091;SDS011;66032;48.252;11.638;2023-02-13T07:09:31;15.98;;;7.20;;
77091;SDS011;66032;48.252;11.638;2023-02-13T07:12:02;17.42;;;8.88;;
77091;SDS011;66032;48.252;11.638;2023-02-13T07:14:30;17.17;;;8.07;;
77091;SDS011;66032;48.252;11.638;2023-02-13T07:16:57;18.08;;;8.80;;
77091;SDS011;66032;48.252;11.638;2023-02-13T07:19:25;19.05;;;8.70;;
77091;SDS011;66032;48.252;11.638;2023-02-13T07:21:52;17.20;;;7.90;;
77091;SDS011;66032;48.252;11.638;2023-02-13T07:24:19;12.40;;;6.18;;
77091;SDS011;66032;48.252;11.638;2023-02-13T07:26:46;11.98;;;5.85;;
77091;SDS011;66032;48.252;11.638;2023-02-13T07:29:13;15.90;;;7.95;;
77091;SDS011;66032;48.252;11.638;2023-02-13T07:31:41;15.25;;;7.47;;
77091;SDS011;66032;48.252;11.638;2023-02-13T07:34:08;16.75;;;7.68;;
77091;SDS011;66032;48.252;11.638;2023-02-13T07:36:35;17.38;;;8.13;;
77091;SDS011;66032;48.252;11.638;2023-02-13T07:39:02;19.63;;;8.68;;
77091;SDS011;66032;48.252;11.638;2023-02-13T07:41:30;21.08;;;8.18;;
77091;SDS011;66032;48.252;11.638;2023-02-13T07:44:00;19.13;;;8.15;;
77091;SDS011;66032;48.252;11.638;2023-02-13T07:46:27;17.10;;;8.20;;
77091;SDS011;66032;48.252;11.638;2023-02-13T07:48:54;18.80;;;8.70;;
77091;SDS011;66032;48.252;11.638;2023-02-13T07:51:22;15.85;;;7.35;;
77091;SDS011;66032;48.252;11.638;2023-02-13T07:53:51;17.23;;;8.88;;
77091;SDS011;66032;48.252;11.638;2023-02-13T07:56:20;17.27;;;7.65;;
77091;SDS011;66032;48.252;11.638;2023-02-13T07:58:48;17.23;;;7.68;;
77091;SDS011;66032;48.252;11.638;2023-02-13T08:01:15;14.55;;;6.90;;
77091;SDS011;66032;48.252;11.638;2023-02-13T08:03:42;26.25;;;8.32;;
77091;SDS011;66032;48.252;11.638;2023-02-13T08:06:14;14.38;;;7.03;;
77091;SDS011;66032;48.252;11.638;2023-02-13T08:08:41;13.35;;;6.75;;
77091;SDS011;66032;48.252;11.638;2023-02-13T08:11:16;17.75;;;7.38;;
77091;SDS011;66032;48.252;11.638;2023-02-13T08:14:10;13.02;;;6.85;;
77091;SDS011;66032;48.252;11.638;2023-02-13T08:16:37;12.65;;;6.40;;
77091;SDS011;66032;48.252;11.638;2023-02-13T08:19:05;14.25;;;7.90;;
77091;SDS011;66032;48.252;11.638;2023-02-13T08:21:32;15.07;;;7.72;;
77091;SDS011;66032;48.252;11.638;2023-02-13T08:24:01;15.35;;;7.95;;
77091;SDS011;66032;48.252;11.638;2023-02-13T08:26:29;15.48;;;7.63;;
77091;SDS011;66032;48.252;11.638;2023-02-13T08:28:57;14.38;;;7.18;;
77091;SDS011;66032;48.252;11.638;2023-02-13T08:31:25;22.35;;;8.30;;
77091;SDS011;66032;48.252;11.638;2023-02-13T08:33:52;14.40;;;6.53;;
77091;SDS011;66032;48.252;11.638;2023-02-13T08:36:21;11.75;;;6.13;;
77091;SDS011;66032;48.252;11.638;2023-02-13T08:38:49;14.38;;;7.25;;
77091;SDS011;66032;48.252;11.638;2023-02-13T08:41:16;13.75;;;7.18;;
77091;SDS011;66032;48.252;11.638;2023-02-13T08:43:45;15.80;;;7.40;;
77091;SDS011;66032;48.252;11.638;2023-02-13T08:46:12;15.23;;;7.68;;
77091;SDS011;66032;48.252;11.638;2023-02-13T08:48:39;12.77;;;6.10;;
77091;SDS011;66032;48.252;11.638;2023-02-13T08:51:07;18.83;;;8.27;;
77091;SDS011;66032;48.252;11.638;2023-02-13T08:53:35;29.65;;;8.23;;
77091;SDS011;66032;48.252;11.638;2023-02-13T08:56:03;13.73;;;6.88;;
77091;SDS011;66032;48.252;11.638;2023-02-13T08:58:31;12.60;;;6.47;;
77091;SDS011;66032;48.252;11.638;2023-02-13T09:00:58;20.45;;;7.88;;
77091;SDS011;66032;48.252;11.638;2023-02-13T09:03:26;17.75;;;7.00;;
77091;SDS011;66032;48.252;11.638;2023-02-13T09:05:53;36.20;;;8.90;;
77091;SDS011;66032;48.252;11.638;2023-02-13T09:08:26;16.92;;;6.50;;
77091;SDS011;66032;48.252;11.638;2023-02-13T09:11:00;12.10;;;6.57;;
77091;SDS011;66032;48.252;11.638;2023-02-13T09:13:29;16.63;;;6.70;;
77091;SDS011;66032;48.252;11.638;2023-02-13T09:16:02;18.98;;;7.72;;
77091;SDS011;66032;48.252;11.638;2023-02-13T09:18:31;14.45;;;7.15;;
77091;SDS011;66032;48.252;11.638;2023-02-13T09:21:00;13.52;;;6.93;;
77091;SDS011;66032;48.252;11.638;2023-02-13T09:23:34;11.52;;;5.55;;
77091;SDS011;66032;48.252;11.638;2023-02-13T09:26:04;15.98;;;8.05;;
77091;SDS011;66032;48.252;11.638;2023-02-13T09:28:33;27.65;;;7.63;;
77091;SDS011;66032;48.252;11.638;2023-02-13T09:31:07;10.98;;;6.13;;
77091;SDS011;66032;48.252;11.638;2023-02-13T09:33:37;12.32;;;6.35;;
77091;SDS011;66032;48.252;11.638;2023-02-13T09:36:08;11.73;;;6.45;;
77091;SDS011;66032;48.252;11.638;2023-02-13T09:38:41;22.92;;;9.18;;
77091;SDS011;66032;48.252;11.638;2023-02-13T09:41:30;24.52;;;9.05;;
77091;SDS011;66032;48.252;11.638;2023-02-13T09:47:04;12.23;;;6.40;;
77091;SDS011;66032;48.252;11.638;2023-02-13T09:49:41;12.68;;;6.72;;
77091;SDS011;66032;48.252;11.638;2023-02-13T09:52:13;11.13;;;5.72;;
77091;SDS011;66032;48.252;11.638;2023-02-13T09:54:40;15.23;;;7.35;;
77091;SDS011;66032;48.252;11.638;2023-02-13T09:57:42;14.70;;;7.72;;
77091;SDS011;66032;48.252;11.638;2023-02-13T10:00:12;15.15;;;7.78;;
77091;SDS011;66032;48.252;11.638;2023-02-13T10:11:02;14.00;;;7.93;;
77091;SDS011;66032;48.252;11.638;2023-02-13T10:13:47;14.70;;;8.18;;
77091;SDS011;66032;48.252;11.638;2023-02-13T10:16:26;14.38;;;7.90;;
77091;SDS011;66032;48.252;11.638;2023-02-13T10:19:01;12.38;;;7.40;;
77091;SDS011;66032;48.252;11.638;2023-02-13T10:21:52;14.52;;;8.50;;
77091;SDS011;66032;48.252;11.638;2023-02-13T10:24:41;14.32;;;7.43;;
77091;SDS011;66032;48.252;11.638;2023-02-13T10:27:23;14.50;;;7.68;;
77091;SDS011;66032;48.252;11.638;2023-02-13T10:29:55;14.57;;;7.55;;
77091;SDS011;66032;48.252;11.638;2023-02-13T10:35:17;10.02;;;5.38;;
77091;SDS011;66032;48.252;11.638;2023-02-13T10:37:48;14.18;;;7.18;;
77091;SDS011;66032;48.252;11.638;2023-02-13T10:40:19;14.82;;;8.10;;
77091;SDS011;66032;48.252;11.638;2023-02-13T10:42:50;18.25;;;8.32;;
77091;SDS011;66032;48.252;11.638;2023-02-13T10:53:52;12.05;;;6.82;;
77091;SDS011;66032;48.252;11.638;2023-02-13T10:59:03;14.48;;;8.23;;
77091;SDS011;66032;48.252;11.638;2023-02-13T11:04:11;15.80;;;8.15;;
77091;SDS011;66032;48.252;11.638;2023-02-13T11:09:22;14.23;;;8.23;;
77091;SDS011;66032;48.252;11.638;2023-02-13T11:11:50;14.35;;;7.95;;
77091;SDS011;66032;48.252;11.638;2023-02-13T11:14:19;14.80;;;8.15;;
77091;SDS011;66032;48.252;11.638;2023-02-13T11:16:55;15.82;;;7.78;;
77091;SDS011;66032;48.252;11.638;2023-02-13T11:19:32;15.75;;;8.70;;
77091;SDS011;66032;48.252;11.638;2023-02-13T11:22:04;13.23;;;6.63;;
77091;SDS011;66032;48.252;11.638;2023-02-13T11:24:34;13.40;;;6.93;;
77091;SDS011;66032;48.252;11.638;2023-02-13T11:27:06;11.60;;;6.65;;
77091;SDS011;66032;48.252;11.638;2023-02-13T11:29:53;14.13;;;7.78;;
77091;SDS011;66032;48.252;11.638;2023-02-13T11:32:26;12.68;;;6.53;;
77091;SDS011;66032;48.252;11.638;2023-02-13T11:34:55;15.57;;;8.65;;
77091;SDS011;66032;48.252;11.638;2023-02-13T11:37:26;16.27;;;8.55;;
77091;SDS011;66032;48.252;11.638;2023-02-13T11:39:58;13.88;;;7.82;;
77091;SDS011;66032;48.252;11.638;2023-02-13T11:42:46;15.85;;;8.98;;
77091;SDS011;66032;48.252;11.638;2023-02-13T11:45:21;15.80;;;9.10;;
77091;SDS011;66032;48.252;11.638;2023-02-13T11:47:50;12.75;;;7.88;;
77091;SDS011;66032;48.252;11.638;2023-02-13T11:50:27;15.73;;;7.80;;
77091;SDS011;66032;48.252;11.638;2023-02-13T11:52:58;12.38;;;7.22;;
77091;SDS011;66032;48.252;11.638;2023-02-13T11:56:04;13.05;;;6.68;;
77091;SDS011;66032;48.252;11.638;2023-02-13T11:58:31;13.07;;;7.47;;
77091;SDS011;66032;48.252;11.638;2023-02-13T12:04:02;13.55;;;7.88;;
77091;SDS011;66032;48.252;11.638;2023-02-13T12:06:31;18.30;;;9.70;;
77091;SDS011;66032;48.252;11.638;2023-02-13T12:09:11;17.13;;;9.32;;
77091;SDS011;66032;48.252;11.638;2023-02-13T12:11:45;17.02;;;9.38;;
77091;SDS011;66032;48.252;11.638;2023-02-13T12:14:18;17.52;;;9.45;;
77091;SDS011;66032;48.252;11.638;2023-02-13T12:19:56;16.77;;;8.95;;
77091;SDS011;66032;48.252;11.638;2023-02-13T12:22:43;17.63;;;10.52;;
77091;SDS011;66032;48.252;11.638;2023-02-13T12:26:39;15.73;;;7.85;;
77091;SDS011;66032;48.252;11.638;2023-02-13T12:31:44;14.90;;;8.43;;
77091;SDS011;66032;48.252;11.638;2023-02-13T12:45:50;14.15;;;8.00;;
77091;SDS011;66032;48.252;11.638;2023-02-13T12:54:24;17.98;;;10.77;;
77091;SDS011;66032;48.252;11.638;2023-02-13T12:59:41;15.95;;;9.88;;
77091;SDS011;66032;48.252;11.638;2023-02-13T13:02:39;12.50;;;7.40;;
77091;SDS011;66032;48.252;11.638;2023-02-13T13:08:44;16.33;;;9.68;;
77091;SDS011;66032;48.252;11.638;2023-02-13T13:27:23;18.98;;;10.32;;
77091;SDS011;66032;48.252;11.638;2023-02-13T13:29:57;18.27;;;10.98;;
77091;SDS011;66032;48.252;11.638;2023-02-13T13:32:28;16.67;;;9.07;;
77091;SDS011;66032;48.252;11.638;2023-02-13T13:34:57;15.63;;;8.68;;
77091;SDS011;66032;48.252;11.638;2023-02-13T13:40:22;14.93;;;9.57;;
77091;SDS011;66032;48.252;11.638;2023-02-13T13:42:54;17.23;;;9.55;;
77091;SDS011;66032;48.252;11.638;2023-02-13T13:45:32;15.15;;;9.30;;
77091;SDS011;66032;48.252;11.638;2023-02-13T13:51:11;14.07;;;9.32;;
77091;SDS011;66032;48.252;11.638;2023-02-13T14:07:35;11.90;;;6.70;;
77091;SDS011;66032;48.252;11.638;2023-02-13T14:12:47;16.80;;;9.43;;
77091;SDS011;66032;48.252;11.638;2023-02-13T14:20:41;14.35;;;8.43;;
77091;SDS011;66032;48.252;11.638;2023-02-13T14:26:10;13.38;;;7.63;;
77091;SDS011;66032;48.252;11.638;2023-02-13T14:34:01;14.43;;;9.07;;
77091;SDS011;66032;48.252;11.638;2023-02-13T14:36:31;16.73;;;9.00;;
77091;SDS011;66032;48.252;11.638;2023-02-13T14:39:04;11.73;;;6.80;;
77091;SDS011;66032;48.252;11.638;2023-02-13T14:41:44;11.88;;;6.63;;
77091;SDS011;66032;48.252;11.638;2023-02-13T14:44:38;15.23;;;8.10;;
77091;SDS011;66032;48.252;11.638;2023-02-13T14:47:36;15.75;;;8.00;;
77091;SDS011;66032;48.252;11.638;2023-02-13T14:50:19;12.50;;;7.80;;
77091;SDS011;66032;48.252;11.638;2023-02-13T14:52:51;16.25;;;9.35;;
77091;SDS011;66032;48.252;11.638;2023-02-13T14:55:28;15.68;;;9.18;;
77091;SDS011;66032;48.252;11.638;2023-02-13T15:00:37;14.65;;;8.90;;
77091;SDS011;66032;48.252;11.638;2023-02-13T15:03:22;13.73;;;7.72;;
77091;SDS011;66032;48.252;11.638;2023-02-13T15:05:53;13.40;;;8.25;;
77091;SDS011;66032;48.252;11.638;2023-02-13T15:11:04;16.42;;;8.52;;
77091;SDS011;66032;48.252;11.638;2023-02-13T15:13:51;15.77;;;9.35;;
77091;SDS011;66032;48.252;11.638;2023-02-13T15:16:18;14.02;;;8.50;;
77091;SDS011;66032;48.252;11.638;2023-02-13T15:21:18;14.88;;;7.85;;
77091;SDS011;66032;48.252;11.638;2023-02-13T15:23:52;15.35;;;9.05;;
77091;SDS011;66032;48.252;11.638;2023-02-13T15:26:22;18.27;;;10.85;;
77091;SDS011;66032;48.252;11.638;2023-02-13T15:29:36;17.83;;;9.45;;
77091;SDS011;66032;48.252;11.638;2023-02-13T15:31:55;16.48;;;8.52;;
77091;SDS011;66032;48.252;11.638;2023-02-13T15:34:27;15.57;;;8.40;;
77091;SDS011;66032;48.252;11.638;2023-02-13T15:36:58;15.70;;;8.80;;
77091;SDS011;66032;48.252;11.638;2023-02-13T15:39:27;17.33;;;9.48;;
77091;SDS011;66032;48.252;11.638;2023-02-13T15:41:56;17.17;;;10.30;;
77091;SDS011;66032;48.252;11.638;2023-02-13T15:44:28;20.65;;;12.23;;
77091;SDS011;66032;48.252;11.638;2023-02-13T15:47:02;19.13;;;11.20;;
77091;SDS011;66032;48.252;11.638;2023-02-13T15:49:36;20.35;;;10.70;;
77091;SDS011;66032;48.252;11.638;2023-02-13T15:52:12;19.75;;;9.70;;
77091;SDS011;66032;48.252;11.638;2023-02-13T15:54:50;19.48;;;10.98;;
77091;SDS011;66032;48.252;11.638;2023-02-13T15:57:20;16.88;;;9.45;;
77091;SDS011;66032;48.252;11.638;2023-02-13T15:59:49;19.80;;;10.93;;
77091;SDS011;66032;48.252;11.638;2023-02-13T16:02:19;16.67;;;9.50;;
77091;SDS011;66032;48.252;11.638;2023-02-13T16:05:09;15.90;;;9.48;;
77091;SDS011;66032;48.252;11.638;2023-02-13T16:07:48;16.60;;;10.15;;
77091;SDS011;66032;48.252;11.638;2023-02-13T16:10:28;18.95;;;10.65;;
77091;SDS011;66032;48.252;11.638;2023-02-13T16:12:59;16.75;;;9.45;;
77091;SDS011;66032;48.252;11.638;2023-02-13T16:15:29;15.05;;;8.43;;
77091;SDS011;66032;48.252;11.638;2023-02-13T16:18:00;14.80;;;9.00;;
77091;SDS011;66032;48.252;11.638;2023-02-13T16:20:29;18.13;;;9.77;;
77091;SDS011;66032;48.252;11.638;2023-02-13T16:23:01;20.75;;;10.57;;
77091;SDS011;66032;48.252;11.638;2023-02-13T16:25:33;17.45;;;9.20;;
77091;SDS011;66032;48.252;11.638;2023-02-13T16:30:38;17.95;;;10.48;;
77091;SDS011;66032;48.252;11.638;2023-02-13T16:35:41;17.98;;;10.55;;
77091;SDS011;66032;48.252;11.638;2023-02-13T16:38:24;16.35;;;9.90;;
77091;SDS011;66032;48.252;11.638;2023-02-13T16:41:03;19.05;;;10.82;;
77091;SDS011;66032;48.252;11.638;2023-02-13T16:43:52;18.77;;;10.50;;
77091;SDS011;66032;48.252;11.638;2023-02-13T16:49:19;14.80;;;8.77;;
77091;SDS011;66032;48.252;11.638;2023-02-13T16:54:26;17.00;;;9.25;;
77091;SDS011;66032;48.252;11.638;2023-02-13T17:04:47;20.15;;;11.35;;
77091;SDS011;66032;48.252;11.638;2023-02-13T17:07:21;19.75;;;10.90;;
77091;SDS011;66032;48.252;11.638;2023-02-13T17:09:51;20.88;;;12.25;;
77091;SDS011;66032;48.252;11.638;2023-02-13T17:12:39;19.35;;;11.18;;
77091;SDS011;66032;48.252;11.638;2023-02-13T17:15:09;21.05;;;11.45;;
77091;SDS011;66032;48.252;11.638;2023-02-13T17:17:42;18.42;;;10.32;;
77091;SDS011;66032;48.252;11.638;2023-02-13T17:20:13;20.35;;;10.93;;
77091;SDS011;66032;48.252;11.638;2023-02-13T17:22:44;21.85;;;11.80;;
77091;SDS011;66032;48.252;11.638;2023-02-13T17:27:53;19.73;;;11.30;;
77091;SDS011;66032;48.252;11.638;2023-02-13T17:30:30;22.75;;;13.23;;
77091;SDS011;66032;48.252;11.638;2023-02-13T17:33:01;25.15;;;14.32;;
77091;SDS011;66032;48.252;11.638;2023-02-13T17:35:33;22.10;;;12.38;;
77091;SDS011;66032;48.252;11.638;2023-02-13T17:38:01;19.10;;;11.45;;
77091;SDS011;66032;48.252;11.638;2023-02-13T17:40:28;22.05;;;11.90;;
77091;SDS011;66032;48.252;11.638;2023-02-13T17:42:57;23.58;;;13.32;;
77091;SDS011;66032;48.252;11.638;2023-02-13T17:45:26;24.80;;;12.52;;
77091;SDS011;66032;48.252;11.638;2023-02-13T17:47:55;22.65;;;12.75;;
77091;SDS011;66032;48.252;11.638;2023-02-13T17:50:24;19.40;;;10.13;;
77091;SDS011;66032;48.252;11.638;2023-02-13T17:52:53;25.20;;;13.18;;
77091;SDS011;66032;48.252;11.638;2023-02-13T17:55:25;22.67;;;11.57;;
77091;SDS011;66032;48.252;11.638;2023-02-13T17:57:55;20.65;;;11.43;;